sensor_id;sensor_type;location;lat;lon;timestamp;pressure;altitude;pressure_sealevel;temperature;humidity
41306;BME280;27051;50.376;19.152;2022-09-24T00:02:13;98289.59;;;10.37;57.86
41306;BME280;27051;50.376;19.152;2022-09-24T00:04:40;98277.70;;;10.32;57.93
41306;BME280;27051;50.376;19.152;2022-09-24T00:07:06;98267.31;;;10.36;57.96
41306;BME280;27051;50.376;19.152;2022-09-24T00:09:33;98274.59;;;10.42;57.90
41306;BME280;27051;50.376;19.152;2022-09-24T00:12:00;98272.44;;;10.35;57.98
41306;BME280;27051;50.376;19.152;2022-09-24T00:14:27;98271.02;;;10.44;57.98
41306;BME280;27051;50.376;19.152;2022-09-24T00:16:53;98275.69;;;10.35;57.77
41306;BME280;27051;50.376;19.152;2022-09-24T00:19:20;98269.83;;;10.27;58.08
41306;BME280;27051;50.376;19.152;2022-09-24T00:21:47;98272.33;;;10.32;58.20
41306;BME280;27051;50.376;19.152;2022-09-24T00:24:15;98263.63;;;10.41;58.12
41306;BME280;27051;50.376;19.152;2022-09-24T00:26:44;98264.95;;;10.35;57.98
41306;BME280;27051;50.376;19.152;2022-09-24T00:29:15;98269.08;;;10.32;58.07
41306;BME280;27051;50.376;19.152;2022-09-24T00:31:42;98259.36;;;10.40;58.26
41306;BME280;27051;50.376;19.152;2022-09-24T00:34:09;98254.12;;;10.43;58.25
41306;BME280;27051;50.376;19.152;2022-09-24T00:36:36;98249.06;;;10.42;58.24
41306;BME280;27051;50.376;19.152;2022-09-24T00:39:04;98248.95;;;10.45;58.28
41306;BME280;27051;50.376;19.152;2022-09-24T00:41:34;98244.82;;;10.47;58.25
41306;BME280;27051;50.376;19.152;2022-09-24T00:44:39;98244.36;;;10.45;58.13
41306;BME280;27051;50.376;19.152;2022-09-24T00:46:43;98242.11;;;10.35;58.08
41306;BME280;27051;50.376;19.152;2022-09-24T00:49:18;98236.58;;;10.25;58.11
41306;BME280;27051;50.376;19.152;2022-09-24T00:51:47;98236.47;;;10.21;58.39
41306;BME280;27051;50.376;19.152;2022-09-24T00:54:19;98235.69;;;10.21;58.46
41306;BME280;27051;50.376;19.152;2022-09-24T00:56:49;98231.77;;;10.25;58.50
41306;BME280;27051;50.376;19.152;2022-09-24T00:59:20;98234.23;;;10.24;58.39
41306;BME280;27051;50.376;19.152;2022-09-24T01:01:48;98230.74;;;10.17;58.32
41306;BME280;27051;50.376;19.152;2022-09-24T01:04:17;98226.50;;;10.16;58.58
41306;BME280;27051;50.376;19.152;2022-09-24T01:06:45;98227.49;;;10.17;58.57
41306;BME280;27051;50.376;19.152;2022-09-24T01:09:11;98227.06;;;10.15;58.53
41306;BME280;27051;50.376;19.152;2022-09-24T01:11:57;98224.16;;;10.20;58.52
41306;BME280;27051;50.376;19.152;2022-09-24T01:14:56;98218.80;;;10.20;58.42
41306;BME280;27051;50.376;19.152;2022-09-24T01:17:31;98213.53;;;10.18;58.38
41306;BME280;27051;50.376;19.152;2022-09-24T01:32:06;98204.95;;;9.91;58.43
41306;BME280;27051;50.376;19.152;2022-09-24T01:34:48;98205.36;;;9.81;58.40
41306;BME280;27051;50.376;19.152;2022-09-24T01:37:20;98200.97;;;9.70;58.27
41306;BME280;27051;50.376;19.152;2022-09-24T01:39:49;98191.68;;;9.68;58.34
41306;BME280;27051;50.376;19.152;2022-09-24T01:42:18;98193.64;;;9.52;58.30
41306;BME280;27051;50.376;19.152;2022-09-24T01:44:47;98189.57;;;9.46;58.28
41306;BME280;27051;50.376;19.152;2022-09-24T01:47:22;98186.75;;;9.37;58.42
41306;BME280;27051;50.376;19.152;2022-09-24T01:49:50;98186.61;;;9.33;58.50
41306;BME280;27051;50.376;19.152;2022-09-24T01:52:20;98190.07;;;9.33;58.67
41306;BME280;27051;50.376;19.152;2022-09-24T01:54:51;98182.37;;;9.32;58.68
41306;BME280;27051;50.376;19.152;2022-09-24T01:57:33;98187.91;;;9.48;58.79
41306;BME280;27051;50.376;19.152;2022-09-24T02:00:08;98184.50;;;9.60;58.55
41306;BME280;27051;50.376;19.152;2022-09-24T02:02:53;98184.61;;;9.57;58.23
41306;BME280;27051;50.376;19.152;2022-09-24T02:05:35;98189.53;;;9.34;58.17
41306;BME280;27051;50.376;19.152;2022-09-24T02:08:21;98186.23;;;9.22;58.25
41306;BME280;27051;50.376;19.152;2022-09-24T02:11:02;98179.91;;;9.12;58.54
41306;BME280;27051;50.376;19.152;2022-09-24T02:13:34;98179.35;;;9.12;58.44
41306;BME280;27051;50.376;19.152;2022-09-24T02:16:02;98184.89;;;9.01;58.38
41306;BME280;27051;50.376;19.152;2022-09-24T02:18:35;98182.25;;;8.93;58.35
41306;BME280;27051;50.376;19.152;2022-09-24T02:21:08;98185.46;;;8.86;58.38
41306;BME280;27051;50.376;19.152;2022-09-24T02:23:39;98185.31;;;8.82;58.51
41306;BME280;27051;50.376;19.152;2022-09-24T02:26:09;98189.30;;;8.76;58.54
41306;BME280;27051;50.376;19.152;2022-09-24T02:28:36;98186.73;;;8.65;58.68
41306;BME280;27051;50.376;19.152;2022-09-24T02:31:09;98186.05;;;8.62;58.61
41306;BME280;27051;50.376;19.152;2022-09-24T02:33:45;98182.78;;;8.56;58.63
41306;BME280;27051;50.376;19.152;2022-09-24T02:36:13;98183.19;;;8.52;58.94
41306;BME280;27051;50.376;19.152;2022-09-24T02:38:40;98180.28;;;8.51;58.98
41306;BME280;27051;50.376;19.152;2022-09-24T02:41:06;98181.94;;;8.50;58.95
41306;BME280;27051;50.376;19.152;2022-09-24T02:43:33;98180.59;;;8.50;58.95
41306;BME280;27051;50.376;19.152;2022-09-24T02:46:00;98176.86;;;8.57;59.02
41306;BME280;27051;50.376;19.152;2022-09-24T02:48:28;98178.70;;;8.65;58.96
41306;BME280;27051;50.376;19.152;2022-09-24T02:50:54;98178.02;;;8.62;58.93
41306;BME280;27051;50.376;19.152;2022-09-24T02:53:21;98182.56;;;8.55;58.87
41306;BME280;27051;50.376;19.152;2022-09-24T02:55:48;98183.81;;;8.58;59.13
41306;BME280;27051;50.376;19.152;2022-09-24T02:58:14;98180.10;;;8.56;59.01
41306;BME280;27051;50.376;19.152;2022-09-24T03:00:41;98181.91;;;8.58;58.98
41306;BME280;27051;50.376;19.152;2022-09-24T03:03:08;98176.45;;;8.61;59.05
41306;BME280;27051;50.376;19.152;2022-09-24T03:05:34;98173.72;;;8.55;58.90
41306;BME280;27051;50.376;19.152;2022-09-24T03:08:01;98177.02;;;8.45;59.08
41306;BME280;27051;50.376;19.152;2022-09-24T03:10:28;98169.35;;;8.50;59.08
41306;BME280;27051;50.376;19.152;2022-09-24T03:12:55;98167.81;;;8.40;59.00
41306;BME280;27051;50.376;19.152;2022-09-24T03:15:22;98163.95;;;8.35;59.15
41306;BME280;27051;50.376;19.152;2022-09-24T03:17:48;98157.66;;;8.31;59.27
41306;BME280;27051;50.376;19.152;2022-09-24T03:20:15;98157.19;;;8.29;59.30
41306;BME280;27051;50.376;19.152;2022-09-24T03:22:42;98160.80;;;8.33;59.45
41306;BME280;27051;50.376;19.152;2022-09-24T03:25:08;98162.83;;;8.36;59.51
41306;BME280;27051;50.376;19.152;2022-09-24T03:27:35;98162.19;;;8.48;59.79
41306;BME280;27051;50.376;19.152;2022-09-24T03:30:02;98161.44;;;8.54;59.52
41306;BME280;27051;50.376;19.152;2022-09-24T03:32:29;98164.81;;;8.57;59.51
41306;BME280;27051;50.376;19.152;2022-09-24T03:34:56;98163.34;;;8.53;59.47
41306;BME280;27051;50.376;19.152;2022-09-24T03:37:22;98162.41;;;8.49;59.44
41306;BME280;27051;50.376;19.152;2022-09-24T03:39:49;98161.44;;;8.54;59.84
41306;BME280;27051;50.376;19.152;2022-09-24T03:42:16;98160.42;;;8.67;59.97
41306;BME280;27051;50.376;19.152;2022-09-24T03:44:43;98159.94;;;8.80;59.92
41306;BME280;27051;50.376;19.152;2022-09-24T03:47:09;98158.97;;;8.84;59.77
41306;BME280;27051;50.376;19.152;2022-09-24T03:49:36;98157.41;;;8.83;59.71
41306;BME280;27051;50.376;19.152;2022-09-24T03:52:02;98160.09;;;8.83;59.83
41306;BME280;27051;50.376;19.152;2022-09-24T03:54:29;98160.22;;;8.87;59.79
41306;BME280;27051;50.376;19.152;2022-09-24T03:56:56;98162.99;;;8.84;59.78
41306;BME280;27051;50.376;19.152;2022-09-24T03:59:23;98167.02;;;8.84;59.83
41306;BME280;27051;50.376;19.152;2022-09-24T04:01:50;98160.78;;;8.86;59.88
41306;BME280;27051;50.376;19.152;2022-09-24T04:04:16;98160.75;;;8.80;59.68
41306;BME280;27051;50.376;19.152;2022-09-24T04:06:43;98164.13;;;8.68;59.72
41306;BME280;27051;50.376;19.152;2022-09-24T04:09:09;98156.20;;;8.72;59.91
41306;BME280;27051;50.376;19.152;2022-09-24T04:11:36;98163.63;;;8.75;59.94
41306;BME280;27051;50.376;19.152;2022-09-24T04:14:03;98165.84;;;8.73;59.67
41306;BME280;27051;50.376;19.152;2022-09-24T04:16:29;98171.78;;;8.64;59.74
41306;BME280;27051;50.376;19.152;2022-09-24T04:18:56;98165.19;;;8.61;59.78
41306;BME280;27051;50.376;19.152;2022-09-24T04:21:23;98167.73;;;8.58;59.89
41306;BME280;27051;50.376;19.152;2022-09-24T04:23:49;98165.67;;;8.55;59.88
41306;BME280;27051;50.376;19.152;2022-09-24T04:26:16;98160.95;;;8.60;60.12
41306;BME280;27051;50.376;19.152;2022-09-24T04:28:43;98163.25;;;8.71;60.16
41306;BME280;27051;50.376;19.152;2022-09-24T04:31:09;98158.02;;;8.74;59.96
41306;BME280;27051;50.376;19.152;2022-09-24T04:33:36;98156.98;;;8.73;59.95
41306;BME280;27051;50.376;19.152;2022-09-24T04:36:03;98155.65;;;8.73;60.12
41306;BME280;27051;50.376;19.152;2022-09-24T04:38:29;98152.25;;;8.78;60.06
41306;BME280;27051;50.376;19.152;2022-09-24T04:41:05;98149.13;;;8.82;60.01
41306;BME280;27051;50.376;19.152;2022-09-24T04:43:32;98155.73;;;8.85;59.98
41306;BME280;27051;50.376;19.152;2022-09-24T04:45:59;98146.73;;;8.75;59.73
41306;BME280;27051;50.376;19.152;2022-09-24T04:48:25;98148.70;;;8.65;59.79
41306;BME280;27051;50.376;19.152;2022-09-24T04:50:52;98146.39;;;8.55;59.95
41306;BME280;27051;50.376;19.152;2022-09-24T04:53:19;98141.53;;;8.63;60.34
41306;BME280;27051;50.376;19.152;2022-09-24T04:55:45;98140.91;;;8.73;60.26
41306;BME280;27051;50.376;19.152;2022-09-24T04:58:12;98138.38;;;8.76;60.04
41306;BME280;27051;50.376;19.152;2022-09-24T05:00:39;98135.48;;;8.75;60.23
41306;BME280;27051;50.376;19.152;2022-09-24T05:03:05;98131.48;;;8.81;60.21
41306;BME280;27051;50.376;19.152;2022-09-24T05:05:33;98128.81;;;8.81;59.93
41306;BME280;27051;50.376;19.152;2022-09-24T05:08:00;98127.52;;;8.73;60.08
41306;BME280;27051;50.376;19.152;2022-09-24T05:10:28;98124.80;;;8.66;59.97
41306;BME280;27051;50.376;19.152;2022-09-24T05:12:56;98132.97;;;8.70;60.23
41306;BME280;27051;50.376;19.152;2022-09-24T05:15:23;98129.59;;;8.82;60.25
41306;BME280;27051;50.376;19.152;2022-09-24T05:17:49;98133.52;;;8.84;60.29
41306;BME280;27051;50.376;19.152;2022-09-24T05:20:16;98135.59;;;8.94;60.30
41306;BME280;27051;50.376;19.152;2022-09-24T05:22:44;98132.92;;;9.00;60.24
41306;BME280;27051;50.376;19.152;2022-09-24T05:25:14;98134.02;;;9.13;60.26
41306;BME280;27051;50.376;19.152;2022-09-24T05:27:44;98127.33;;;9.20;60.39
41306;BME280;27051;50.376;19.152;2022-09-24T05:30:15;98128.48;;;9.31;60.39
41306;BME280;27051;50.376;19.152;2022-09-24T05:32:43;98122.61;;;9.44;60.38
41306;BME280;27051;50.376;19.152;2022-09-24T05:35:10;98130.80;;;9.53;60.32
41306;BME280;27051;50.376;19.152;2022-09-24T05:37:37;98132.95;;;9.60;60.19
41306;BME280;27051;50.376;19.152;2022-09-24T05:40:05;98134.76;;;9.62;60.23
41306;BME280;27051;50.376;19.152;2022-09-24T05:42:32;98126.25;;;9.66;60.16
41306;BME280;27051;50.376;19.152;2022-09-24T05:44:59;98131.30;;;9.74;60.42
41306;BME280;27051;50.376;19.152;2022-09-24T05:47:25;98127.20;;;9.89;60.37
41306;BME280;27051;50.376;19.152;2022-09-24T05:49:52;98127.22;;;10.01;60.35
41306;BME280;27051;50.376;19.152;2022-09-24T05:52:19;98131.61;;;10.18;60.34
41306;BME280;27051;50.376;19.152;2022-09-24T05:54:46;98123.14;;;10.28;60.08
41306;BME280;27051;50.376;19.152;2022-09-24T05:57:12;98126.03;;;10.29;60.07
41306;BME280;27051;50.376;19.152;2022-09-24T05:59:39;98131.19;;;10.34;59.89
41306;BME280;27051;50.376;19.152;2022-09-24T06:02:05;98127.27;;;10.44;60.24
41306;BME280;27051;50.376;19.152;2022-09-24T06:04:34;98134.97;;;10.58;60.04
41306;BME280;27051;50.376;19.152;2022-09-24T06:07:00;98135.97;;;10.65;59.88
41306;BME280;27051;50.376;19.152;2022-09-24T06:09:27;98136.76;;;10.72;59.64
41306;BME280;27051;50.376;19.152;2022-09-24T06:11:53;98141.80;;;10.74;59.79
41306;BME280;27051;50.376;19.152;2022-09-24T06:14:20;98136.41;;;10.80;59.59
41306;BME280;27051;50.376;19.152;2022-09-24T06:16:47;98134.14;;;10.88;59.63
41306;BME280;27051;50.376;19.152;2022-09-24T06:19:13;98138.84;;;10.91;59.50
41306;BME280;27051;50.376;19.152;2022-09-24T06:21:40;98136.81;;;11.00;59.53
41306;BME280;27051;50.376;19.152;2022-09-24T06:24:07;98140.61;;;11.05;59.36
41306;BME280;27051;50.376;19.152;2022-09-24T06:26:33;98143.39;;;11.09;59.50
41306;BME280;27051;50.376;19.152;2022-09-24T06:29:00;98146.41;;;11.20;59.46
41306;BME280;27051;50.376;19.152;2022-09-24T06:31:27;98142.09;;;11.31;59.40
41306;BME280;27051;50.376;19.152;2022-09-24T06:33:54;98142.17;;;11.41;59.30
41306;BME280;27051;50.376;19.152;2022-09-24T06:36:20;98142.38;;;11.48;59.11
41306;BME280;27051;50.376;19.152;2022-09-24T06:38:51;98151.42;;;11.56;59.10
41306;BME280;27051;50.376;19.152;2022-09-24T06:41:18;98148.94;;;11.57;59.24
41306;BME280;27051;50.376;19.152;2022-09-24T06:43:45;98153.23;;;11.73;59.03
41306;BME280;27051;50.376;19.152;2022-09-24T06:46:12;98151.73;;;11.88;59.03
41306;BME280;27051;50.376;19.152;2022-09-24T06:48:38;98150.52;;;12.02;58.96
41306;BME280;27051;50.376;19.152;2022-09-24T06:51:05;98152.46;;;12.11;58.79
41306;BME280;27051;50.376;19.152;2022-09-24T06:53:32;98148.16;;;12.16;58.45
41306;BME280;27051;50.376;19.152;2022-09-24T06:55:59;98151.79;;;12.14;58.13
41306;BME280;27051;50.376;19.152;2022-09-24T06:58:26;98149.74;;;12.17;58.51
41306;BME280;27051;50.376;19.152;2022-09-24T07:00:54;98148.57;;;12.24;58.27
41306;BME280;27051;50.376;19.152;2022-09-24T07:03:23;98149.29;;;12.31;58.04
41306;BME280;27051;50.376;19.152;2022-09-24T07:05:51;98150.23;;;12.29;57.86
41306;BME280;27051;50.376;19.152;2022-09-24T07:08:18;98146.44;;;12.40;58.01
41306;BME280;27051;50.376;19.152;2022-09-24T07:10:46;98146.64;;;12.41;57.70
41306;BME280;27051;50.376;19.152;2022-09-24T07:13:14;98153.28;;;12.53;58.03
41306;BME280;27051;50.376;19.152;2022-09-24T07:15:41;98149.44;;;12.54;58.00
41306;BME280;27051;50.376;19.152;2022-09-24T07:18:10;98150.65;;;12.72;58.15
41306;BME280;27051;50.376;19.152;2022-09-24T07:20:37;98149.45;;;12.89;58.11
41306;BME280;27051;50.376;19.152;2022-09-24T07:23:05;98152.19;;;13.09;57.84
41306;BME280;27051;50.376;19.152;2022-09-24T07:25:34;98153.69;;;13.16;57.51
41306;BME280;27051;50.376;19.152;2022-09-24T07:28:08;98149.17;;;13.30;57.56
41306;BME280;27051;50.376;19.152;2022-09-24T07:30:37;98151.16;;;13.33;57.08
41306;BME280;27051;50.376;19.152;2022-09-24T07:33:04;98151.16;;;13.33;56.92
41306;BME280;27051;50.376;19.152;2022-09-24T07:35:32;98156.21;;;13.44;57.13
41306;BME280;27051;50.376;19.152;2022-09-24T07:38:09;98154.72;;;13.56;56.99
41306;BME280;27051;50.376;19.152;2022-09-24T07:40:34;98160.66;;;13.65;56.88
41306;BME280;27051;50.376;19.152;2022-09-24T07:43:00;98157.80;;;13.78;56.97
41306;BME280;27051;50.376;19.152;2022-09-24T07:45:27;98161.11;;;13.90;57.11
41306;BME280;27051;50.376;19.152;2022-09-24T07:48:02;98169.92;;;13.97;56.75
41306;BME280;27051;50.376;19.152;2022-09-24T07:50:36;98165.64;;;13.96;56.53
41306;BME280;27051;50.376;19.152;2022-09-24T07:53:03;98162.73;;;14.05;56.49
41306;BME280;27051;50.376;19.152;2022-09-24T07:55:29;98170.66;;;14.17;56.08
41306;BME280;27051;50.376;19.152;2022-09-24T07:57:56;98166.35;;;14.26;55.90
41306;BME280;27051;50.376;19.152;2022-09-24T08:00:24;98169.30;;;14.40;56.00
41306;BME280;27051;50.376;19.152;2022-09-24T08:02:51;98169.19;;;14.46;56.05
41306;BME280;27051;50.376;19.152;2022-09-24T08:05:18;98168.09;;;14.61;55.87
41306;BME280;27051;50.376;19.152;2022-09-24T08:07:53;98167.55;;;14.65;55.23
41306;BME280;27051;50.376;19.152;2022-09-24T08:10:21;98168.83;;;14.71;55.52
41306;BME280;27051;50.376;19.152;2022-09-24T08:12:49;98167.55;;;14.78;54.97
41306;BME280;27051;50.376;19.152;2022-09-24T08:15:16;98167.66;;;14.85;55.18
41306;BME280;27051;50.376;19.152;2022-09-24T08:17:43;98170.38;;;14.98;55.41
41306;BME280;27051;50.376;19.152;2022-09-24T08:20:10;98165.30;;;15.10;54.84
41306;BME280;27051;50.376;19.152;2022-09-24T08:22:37;98163.46;;;15.18;54.83
41306;BME280;27051;50.376;19.152;2022-09-24T08:25:04;98166.13;;;15.31;54.45
41306;BME280;27051;50.376;19.152;2022-09-24T08:27:31;98166.83;;;15.41;54.79
41306;BME280;27051;50.376;19.152;2022-09-24T08:29:58;98161.17;;;15.54;54.22
41306;BME280;27051;50.376;19.152;2022-09-24T08:32:26;98159.13;;;15.60;54.21
41306;BME280;27051;50.376;19.152;2022-09-24T08:34:53;98156.28;;;15.67;53.85
41306;BME280;27051;50.376;19.152;2022-09-24T08:37:20;98158.69;;;15.72;54.05
41306;BME280;27051;50.376;19.152;2022-09-24T08:39:47;98165.77;;;15.80;53.69
41306;BME280;27051;50.376;19.152;2022-09-24T08:42:34;98162.64;;;15.78;53.56
41306;BME280;27051;50.376;19.152;2022-09-24T08:45:08;98167.64;;;15.76;53.10
41306;BME280;27051;50.376;19.152;2022-09-24T08:47:41;98166.16;;;15.65;53.04
41306;BME280;27051;50.376;19.152;2022-09-24T08:50:23;98165.71;;;15.76;53.40
41306;BME280;27051;50.376;19.152;2022-09-24T08:53:16;98160.69;;;15.95;53.28
41306;BME280;27051;50.376;19.152;2022-09-24T08:55:57;98168.35;;;16.10;53.16
41306;BME280;27051;50.376;19.152;2022-09-24T08:58:38;98166.38;;;16.27;52.74
41306;BME280;27051;50.376;19.152;2022-09-24T09:09:19;98166.83;;;16.61;51.99
41306;BME280;27051;50.376;19.152;2022-09-24T09:11:58;98164.16;;;16.64;51.81
41306;BME280;27051;50.376;19.152;2022-09-24T09:14:47;98160.33;;;16.73;51.51
41306;BME280;27051;50.376;19.152;2022-09-24T09:17:26;98151.37;;;16.92;51.58
41306;BME280;27051;50.376;19.152;2022-09-24T09:19:57;98146.44;;;17.16;51.31
41306;BME280;27051;50.376;19.152;2022-09-24T09:22:28;98141.81;;;17.27;50.67
41306;BME280;27051;50.376;19.152;2022-09-24T09:25:09;98141.08;;;17.34;50.51
41306;BME280;27051;50.376;19.152;2022-09-24T09:27:51;98134.71;;;17.47;50.27
41306;BME280;27051;50.376;19.152;2022-09-24T09:30:38;98129.11;;;17.60;50.14
41306;BME280;27051;50.376;19.152;2022-09-24T09:33:18;98130.50;;;17.64;49.84
41306;BME280;27051;50.376;19.152;2022-09-24T09:35:54;98123.12;;;17.75;49.67
41306;BME280;27051;50.376;19.152;2022-09-24T09:41:28;98119.09;;;17.86;48.85
41306;BME280;27051;50.376;19.152;2022-09-24T09:44:23;98114.25;;;17.96;48.57
41306;BME280;27051;50.376;19.152;2022-09-24T09:46:52;98110.78;;;18.17;48.69
41306;BME280;27051;50.376;19.152;2022-09-24T09:49:29;98113.87;;;18.33;48.02
41306;BME280;27051;50.376;19.152;2022-09-24T09:52:00;98116.78;;;18.45;48.25
41306;BME280;27051;50.376;19.152;2022-09-24T09:54:35;98107.63;;;18.51;47.94
41306;BME280;27051;50.376;19.152;2022-09-24T09:57:05;98111.49;;;18.64;47.73
41306;BME280;27051;50.376;19.152;2022-09-24T09:59:33;98101.94;;;18.75;47.28
41306;BME280;27051;50.376;19.152;2022-09-24T10:02:00;98101.56;;;18.80;47.39
41306;BME280;27051;50.376;19.152;2022-09-24T10:04:39;98103.87;;;18.85;46.96
41306;BME280;27051;50.376;19.152;2022-09-24T10:07:15;98106.59;;;18.96;46.55
41306;BME280;27051;50.376;19.152;2022-09-24T10:09:44;98104.44;;;18.99;46.32
41306;BME280;27051;50.376;19.152;2022-09-24T10:15:00;98107.56;;;18.94;46.22
41306;BME280;27051;50.376;19.152;2022-09-24T10:17:37;98115.72;;;19.01;45.70
41306;BME280;27051;50.376;19.152;2022-09-24T10:20:14;98114.89;;;19.07;45.26
41306;BME280;27051;50.376;19.152;2022-09-24T10:22:49;98110.20;;;19.15;45.14
41306;BME280;27051;50.376;19.152;2022-09-24T10:25:22;98114.84;;;19.18;44.64
41306;BME280;27051;50.376;19.152;2022-09-24T10:27:53;98110.97;;;19.19;45.21
41306;BME280;27051;50.376;19.152;2022-09-24T10:30:23;98116.80;;;19.21;44.89
41306;BME280;27051;50.376;19.152;2022-09-24T10:32:58;98112.69;;;19.25;44.56
41306;BME280;27051;50.376;19.152;2022-09-24T10:35:33;98102.53;;;19.33;44.39
41306;BME280;27051;50.376;19.152;2022-09-24T10:38:19;98105.38;;;19.48;44.28
41306;BME280;27051;50.376;19.152;2022-09-24T10:40:47;98106.83;;;19.70;44.23
41306;BME280;27051;50.376;19.152;2022-09-24T10:43:19;98102.07;;;19.82;43.40
41306;BME280;27051;50.376;19.152;2022-09-24T10:48:42;98101.88;;;20.10;43.04
41306;BME280;27051;50.376;19.152;2022-09-24T10:54:46;98096.64;;;20.08;42.98
41306;BME280;27051;50.376;19.152;2022-09-24T10:57:30;98093.02;;;19.95;42.81
41306;BME280;27051;50.376;19.152;2022-09-24T11:05:48;98098.20;;;19.42;42.27
41306;BME280;27051;50.376;19.152;2022-09-24T11:14:02;98088.37;;;19.22;42.74
41306;BME280;27051;50.376;19.152;2022-09-24T11:22:14;98090.39;;;20.30;41.04
41306;BME280;27051;50.376;19.152;2022-09-24T11:36:53;98071.89;;;22.02;38.84
41306;BME280;27051;50.376;19.152;2022-09-24T11:39:44;98071.72;;;21.62;38.91
41306;BME280;27051;50.376;19.152;2022-09-24T11:42:28;98069.00;;;21.31;38.54
41306;BME280;27051;50.376;19.152;2022-09-24T11:50:53;98070.06;;;21.10;38.70
41306;BME280;27051;50.376;19.152;2022-09-24T11:53:32;98072.11;;;21.18;38.46
41306;BME280;27051;50.376;19.152;2022-09-24T11:56:23;98073.41;;;21.37;38.58
41306;BME280;27051;50.376;19.152;2022-09-24T11:59:20;98069.14;;;21.90;38.53
41306;BME280;27051;50.376;19.152;2022-09-24T12:01:49;98072.32;;;22.36;37.58
41306;BME280;27051;50.376;19.152;2022-09-24T12:04:25;98066.42;;;23.21;37.45
41306;BME280;27051;50.376;19.152;2022-09-24T12:07:11;98061.64;;;23.77;36.49
41306;BME280;27051;50.376;19.152;2022-09-24T12:09:44;98063.62;;;24.10;35.70
41306;BME280;27051;50.376;19.152;2022-09-24T12:12:26;98063.38;;;24.41;35.34
41306;BME280;27051;50.376;19.152;2022-09-24T12:15:06;98064.34;;;24.43;35.52
41306;BME280;27051;50.376;19.152;2022-09-24T12:20:27;98059.39;;;24.13;35.05
41306;BME280;27051;50.376;19.152;2022-09-24T12:23:07;98054.17;;;23.86;34.17
41306;BME280;27051;50.376;19.152;2022-09-24T12:25:43;98053.38;;;23.69;34.31
41306;BME280;27051;50.376;19.152;2022-09-24T12:28:13;98051.47;;;23.58;34.37
41306;BME280;27051;50.376;19.152;2022-09-24T12:30:46;98045.56;;;23.51;34.56
41306;BME280;27051;50.376;19.152;2022-09-24T12:33:33;98044.87;;;23.55;34.13
41306;BME280;27051;50.376;19.152;2022-09-24T12:36:08;98043.04;;;23.77;34.23
41306;BME280;27051;50.376;19.152;2022-09-24T12:38:45;98042.27;;;23.85;34.35
41306;BME280;27051;50.376;19.152;2022-09-24T12:46:54;98034.52;;;23.10;34.18
41306;BME280;27051;50.376;19.152;2022-09-24T12:49:29;98031.25;;;23.52;34.16
41306;BME280;27051;50.376;19.152;2022-09-24T12:52:23;98026.70;;;26.13;32.38
41306;BME280;27051;50.376;19.152;2022-09-24T12:55:00;98025.07;;;26.55;31.96
41306;BME280;27051;50.376;19.152;2022-09-24T12:57:37;98021.11;;;26.39;32.16
41306;BME280;27051;50.376;19.152;2022-09-24T13:00:37;98028.15;;;26.23;31.21
41306;BME280;27051;50.376;19.152;2022-09-24T13:03:34;98025.91;;;26.30;31.62
41306;BME280;27051;50.376;19.152;2022-09-24T13:06:16;98024.66;;;25.92;30.55
41306;BME280;27051;50.376;19.152;2022-09-24T13:08:46;98020.13;;;25.29;31.81
41306;BME280;27051;50.376;19.152;2022-09-24T13:13:59;98017.87;;;25.45;31.34
41306;BME280;27051;50.376;19.152;2022-09-24T13:16:28;98013.22;;;26.68;30.84
41306;BME280;27051;50.376;19.152;2022-09-24T13:18:58;98012.47;;;27.20;30.42
41306;BME280;27051;50.376;19.152;2022-09-24T13:21:27;98005.52;;;26.84;30.12
41306;BME280;27051;50.376;19.152;2022-09-24T13:23:55;98008.30;;;26.28;30.57
41306;BME280;27051;50.376;19.152;2022-09-24T13:26:28;98000.28;;;25.73;29.98
41306;BME280;27051;50.376;19.152;2022-09-24T13:29:00;98002.19;;;25.38;30.40
41306;BME280;27051;50.376;19.152;2022-09-24T13:31:42;97996.69;;;26.50;30.03
41306;BME280;27051;50.376;19.152;2022-09-24T13:34:19;97990.77;;;28.41;29.13
41306;BME280;27051;50.376;19.152;2022-09-24T13:36:54;97982.33;;;30.44;27.90
41306;BME280;27051;50.376;19.152;2022-09-24T13:39:44;97976.20;;;32.36;26.67
41306;BME280;27051;50.376;19.152;2022-09-24T13:42:41;97979.58;;;34.06;25.64
41306;BME280;27051;50.376;19.152;2022-09-24T13:45:21;97969.48;;;35.26;24.11
41306;BME280;27051;50.376;19.152;2022-09-24T13:48:02;97968.72;;;36.59;23.92
41306;BME280;27051;50.376;19.152;2022-09-24T13:55:47;97974.44;;;38.70;21.38
41306;BME280;27051;50.376;19.152;2022-09-24T13:58:30;97971.77;;;39.23;20.84
41306;BME280;27051;50.376;19.152;2022-09-24T14:01:14;97957.10;;;39.63;20.21
41306;BME280;27051;50.376;19.152;2022-09-24T14:04:02;97958.00;;;38.60;19.71
41306;BME280;27051;50.376;19.152;2022-09-24T14:06:36;97959.78;;;37.94;19.68
41306;BME280;27051;50.376;19.152;2022-09-24T14:09:30;97944.08;;;36.34;19.43
41306;BME280;27051;50.376;19.152;2022-09-24T14:12:01;97941.79;;;34.49;20.24
41306;BME280;27051;50.376;19.152;2022-09-24T14:14:51;97934.89;;;34.22;20.12
41306;BME280;27051;50.376;19.152;2022-09-24T14:17:19;97946.57;;;33.60;20.34
41306;BME280;27051;50.376;19.152;2022-09-24T14:19:47;97944.92;;;32.21;20.89
41306;BME280;27051;50.376;19.152;2022-09-24T14:22:23;97944.18;;;31.59;21.60
41306;BME280;27051;50.376;19.152;2022-09-24T14:25:09;97934.16;;;30.57;21.88
41306;BME280;27051;50.376;19.152;2022-09-24T14:27:44;97934.44;;;29.37;22.34
41306;BME280;27051;50.376;19.152;2022-09-24T14:30:21;97938.88;;;28.41;22.90
41306;BME280;27051;50.376;19.152;2022-09-24T14:32:55;97941.92;;;27.78;23.49
41306;BME280;27051;50.376;19.152;2022-09-24T14:35:32;97931.85;;;28.12;23.35
41306;BME280;27051;50.376;19.152;2022-09-24T14:38:10;97941.73;;;28.78;23.65
41306;BME280;27051;50.376;19.152;2022-09-24T14:40:52;97933.20;;;28.53;23.73